sensor_id;sensor_type;location;lat;lon;timestamp;P1;durP1;ratioP1;P2;durP2;ratioP2
13609;SDS011;6876;50.788;4.940;2022-10-03T00:00:19;1073.57;;;981.87;;
13609;SDS011;6876;50.788;4.940;2022-10-03T00:03:18;1075.50;;;983.20;;
13609;SDS011;6876;50.788;4.940;2022-10-03T00:06:21;1074.23;;;982.47;;
13609;SDS011;6876;50.788;4.940;2022-10-03T00:09:21;1048.63;;;960.03;;
13609;SDS011;6876;50.788;4.940;2022-10-03T00:12:33;1049.67;;;961.50;;
13609;SDS011;6876;50.788;4.940;2022-10-03T00:15:29;1040.47;;;954.90;;
13609;SDS011;6876;50.788;4.940;2022-10-03T00:18:23;1039.73;;;953.37;;
13609;SDS011;6876;50.788;4.940;2022-10-03T00:24:41;999.10;;;919.13;;
13609;SDS011;6876;50.788;4.940;2022-10-03T00:27:39;1014.30;;;932.80;;
13609;SDS011;6876;50.788;4.940;2022-10-03T00:30:41;1035.73;;;951.77;;
13609;SDS011;6876;50.788;4.940;2022-10-03T00:33:43;1027.77;;;942.77;;
13609;SDS011;6876;50.788;4.940;2022-10-03T00:36:41;1044.60;;;957.60;;
13609;SDS011;6876;50.788;4.940;2022-10-03T00:39:38;1048.40;;;960.73;;
13609;SDS011;6876;50.788;4.940;2022-10-03T00:46:06;1043.33;;;958.00;;
13609;SDS011;6876;50.788;4.940;2022-10-03T00:49:26;1046.30;;;957.70;;
13609;SDS011;6876;50.788;4.940;2022-10-03T00:52:36;1052.83;;;963.73;;
13609;SDS011;6876;50.788;4.940;2022-10-03T00:55:40;1058.70;;;969.60;;
13609;SDS011;6876;50.788;4.940;2022-10-03T00:58:43;1044.80;;;957.77;;
13609;SDS011;6876;50.788;4.940;2022-10-03T01:01:43;1072.73;;;981.83;;
13609;SDS011;6876;50.788;4.940;2022-10-03T01:04:40;1097.37;;;998.57;;
13609;SDS011;6876;50.788;4.940;2022-10-03T01:10:57;1075.60;;;981.73;;
13609;SDS011;6876;50.788;4.940;2022-10-03T01:13:54;1068.83;;;977.10;;
13609;SDS011;6876;50.788;4.940;2022-10-03T01:16:56;1095.30;;;996.13;;
13609;SDS011;6876;50.788;4.940;2022-10-03T01:19:56;1106.50;;;999.90;;
13609;SDS011;6876;50.788;4.940;2022-10-03T01:29:37;1108.47;;;999.90;;
13609;SDS011;6876;50.788;4.940;2022-10-03T01:32:49;1097.17;;;997.23;;
13609;SDS011;6876;50.788;4.940;2022-10-03T01:35:45;1090.03;;;994.50;;
13609;SDS011;6876;50.788;4.940;2022-10-03T01:38:40;1098.47;;;997.13;;
13609;SDS011;6876;50.788;4.940;2022-10-03T01:41:41;1098.87;;;998.57;;
13609;SDS011;6876;50.788;4.940;2022-10-03T01:44:38;1106.07;;;999.90;;
13609;SDS011;6876;50.788;4.940;2022-10-03T01:47:38;1094.97;;;995.53;;
13609;SDS011;6876;50.788;4.940;2022-10-03T01:50:36;1093.47;;;995.77;;
13609;SDS011;6876;50.788;4.940;2022-10-03T01:53:33;1097.37;;;997.83;;
13609;SDS011;6876;50.788;4.940;2022-10-03T01:56:31;1096.67;;;997.57;;
13609;SDS011;6876;50.788;4.940;2022-10-03T01:59:27;1090.67;;;996.10;;
13609;SDS011;6876;50.788;4.940;2022-10-03T02:02:26;1068.83;;;975.93;;
13609;SDS011;6876;50.788;4.940;2022-10-03T02:05:18;1074.97;;;982.97;;
13609;SDS011;6876;50.788;4.940;2022-10-03T02:08:15;1071.97;;;979.87;;
13609;SDS011;6876;50.788;4.940;2022-10-03T02:11:20;1055.93;;;966.27;;
13609;SDS011;6876;50.788;4.940;2022-10-03T02:14:16;1045.07;;;957.20;;
13609;SDS011;6876;50.788;4.940;2022-10-03T02:17:11;1064.50;;;975.50;;
13609;SDS011;6876;50.788;4.940;2022-10-03T02:20:11;1052.40;;;964.17;;
13609;SDS011;6876;50.788;4.940;2022-10-03T02:23:14;1048.40;;;961.97;;
13609;SDS011;6876;50.788;4.940;2022-10-03T02:33:22;1015.90;;;933.53;;
13609;SDS011;6876;50.788;4.940;2022-10-03T02:39:53;1025.03;;;942.20;;
13609;SDS011;6876;50.788;4.940;2022-10-03T02:43:07;1011.50;;;930.33;;
13609;SDS011;6876;50.788;4.940;2022-10-03T02:56:33;991.43;;;912.57;;
13609;SDS011;6876;50.788;4.940;2022-10-03T03:00:03;1001.67;;;921.97;;
13609;SDS011;6876;50.788;4.940;2022-10-03T03:03:14;1021.87;;;939.87;;
13609;SDS011;6876;50.788;4.940;2022-10-03T03:09:45;1141.00;;;999.90;;
13609;SDS011;6876;50.788;4.940;2022-10-03T03:19:36;999.07;;;919.43;;
13609;SDS011;6876;50.788;4.940;2022-10-03T03:22:39;1020.93;;;938.37;;
13609;SDS011;6876;50.788;4.940;2022-10-03T03:28:51;1002.90;;;923.03;;
13609;SDS011;6876;50.788;4.940;2022-10-03T03:31:49;990.90;;;912.20;;
13609;SDS011;6876;50.788;4.940;2022-10-03T03:34:49;998.20;;;919.20;;
13609;SDS011;6876;50.788;4.940;2022-10-03T03:37:44;1001.30;;;921.57;;
13609;SDS011;6876;50.788;4.940;2022-10-03T03:40:44;1010.77;;;930.20;;
13609;SDS011;6876;50.788;4.940;2022-10-03T03:43:45;1039.17;;;952.70;;
13609;SDS011;6876;50.788;4.940;2022-10-03T03:47:02;1032.17;;;947.23;;
13609;SDS011;6876;50.788;4.940;2022-10-03T03:50:23;1036.17;;;952.37;;
13609;SDS011;6876;50.788;4.940;2022-10-03T03:53:27;1026.37;;;942.67;;
13609;SDS011;6876;50.788;4.940;2022-10-03T03:56:39;1020.07;;;937.07;;
13609;SDS011;6876;50.788;4.940;2022-10-03T03:59:37;1033.10;;;947.23;;
13609;SDS011;6876;50.788;4.940;2022-10-03T04:02:38;1029.03;;;944.70;;
13609;SDS011;6876;50.788;4.940;2022-10-03T04:05:55;1258.53;;;999.90;;
13609;SDS011;6876;50.788;4.940;2022-10-03T04:09:04;1028.17;;;942.80;;
13609;SDS011;6876;50.788;4.940;2022-10-03T04:12:07;1023.27;;;939.63;;
13609;SDS011;6876;50.788;4.940;2022-10-03T04:18:21;1134.50;;;999.90;;
13609;SDS011;6876;50.788;4.940;2022-10-03T04:21:48;990.90;;;913.93;;
13609;SDS011;6876;50.788;4.940;2022-10-03T04:25:02;1017.07;;;935.03;;
13609;SDS011;6876;50.788;4.940;2022-10-03T04:28:13;1015.27;;;932.10;;
13609;SDS011;6876;50.788;4.940;2022-10-03T04:31:36;1003.17;;;923.23;;
13609;SDS011;6876;50.788;4.940;2022-10-03T04:34:33;1021.83;;;938.17;;
13609;SDS011;6876;50.788;4.940;2022-10-03T04:37:31;1093.37;;;995.73;;
13609;SDS011;6876;50.788;4.940;2022-10-03T04:40:27;1028.80;;;946.17;;
13609;SDS011;6876;50.788;4.940;2022-10-03T04:43:31;1038.47;;;952.80;;
13609;SDS011;6876;50.788;4.940;2022-10-03T04:46:29;1053.93;;;965.80;;
13609;SDS011;6876;50.788;4.940;2022-10-03T04:49:27;1033.13;;;947.60;;
13609;SDS011;6876;50.788;4.940;2022-10-03T04:52:22;1025.43;;;942.47;;
13609;SDS011;6876;50.788;4.940;2022-10-03T04:55:20;1027.97;;;943.47;;
13609;SDS011;6876;50.788;4.940;2022-10-03T04:58:14;1044.17;;;956.57;;
13609;SDS011;6876;50.788;4.940;2022-10-03T05:01:12;1050.07;;;963.10;;
13609;SDS011;6876;50.788;4.940;2022-10-03T05:04:06;1105.43;;;999.90;;
13609;SDS011;6876;50.788;4.940;2022-10-03T05:07:10;1136.73;;;999.90;;
13609;SDS011;6876;50.788;4.940;2022-10-03T05:10:33;1120.87;;;999.90;;
13609;SDS011;6876;50.788;4.940;2022-10-03T05:16:47;1127.20;;;999.90;;
13609;SDS011;6876;50.788;4.940;2022-10-03T05:19:50;1161.97;;;999.90;;
13609;SDS011;6876;50.788;4.940;2022-10-03T05:22:53;1080.67;;;987.30;;
13609;SDS011;6876;50.788;4.940;2022-10-03T05:25:52;1043.07;;;957.27;;
13609;SDS011;6876;50.788;4.940;2022-10-03T05:28:46;1047.83;;;961.30;;
13609;SDS011;6876;50.788;4.940;2022-10-03T05:31:43;1138.40;;;999.90;;
13609;SDS011;6876;50.788;4.940;2022-10-03T05:34:37;1088.27;;;992.63;;
13609;SDS011;6876;50.788;4.940;2022-10-03T05:37:45;1118.73;;;999.90;;
13609;SDS011;6876;50.788;4.940;2022-10-03T05:40:58;1085.03;;;991.37;;
13609;SDS011;6876;50.788;4.940;2022-10-03T05:43:51;1087.40;;;993.47;;
13609;SDS011;6876;50.788;4.940;2022-10-03T05:46:54;1040.07;;;955.20;;
13609;SDS011;6876;50.788;4.940;2022-10-03T05:49:48;1046.17;;;959.00;;
13609;SDS011;6876;50.788;4.940;2022-10-03T05:52:54;1112.80;;;999.90;;
13609;SDS011;6876;50.788;4.940;2022-10-03T05:55:52;1100.83;;;999.27;;
13609;SDS011;6876;50.788;4.940;2022-10-03T05:58:54;1203.67;;;999.90;;
13609;SDS011;6876;50.788;4.940;2022-10-03T06:05:22;1070.07;;;978.63;;
13609;SDS011;6876;50.788;4.940;2022-10-03T06:08:26;1114.63;;;999.90;;
13609;SDS011;6876;50.788;4.940;2022-10-03T06:11:48;1189.63;;;999.90;;
13609;SDS011;6876;50.788;4.940;2022-10-03T06:18:17;1116.33;;;999.90;;
13609;SDS011;6876;50.788;4.940;2022-10-03T06:21:51;1089.87;;;994.70;;
13609;SDS011;6876;50.788;4.940;2022-10-03T06:25:21;1099.40;;;999.03;;
13609;SDS011;6876;50.788;4.940;2022-10-03T06:28:52;1161.53;;;999.90;;
13609;SDS011;6876;50.788;4.940;2022-10-03T06:32:11;1193.20;;;999.90;;
13609;SDS011;6876;50.788;4.940;2022-10-03T06:49:23;1999.90;;;999.90;;
13609;SDS011;6876;50.788;4.940;2022-10-03T06:52:26;1999.90;;;999.90;;
13609;SDS011;6876;50.788;4.940;2022-10-03T06:55:45;1999.90;;;999.90;;
13609;SDS011;6876;50.788;4.940;2022-10-03T06:58:51;1999.90;;;999.90;;
13609;SDS011;6876;50.788;4.940;2022-10-03T07:01:53;1999.90;;;999.90;;
13609;SDS011;6876;50.788;4.940;2022-10-03T07:05:08;1999.90;;;999.90;;
13609;SDS011;6876;50.788;4.940;2022-10-03T07:12:14;1999.90;;;999.90;;
13609;SDS011;6876;50.788;4.940;2022-10-03T07:19:06;1999.90;;;999.90;;
13609;SDS011;6876;50.788;4.940;2022-10-03T07:22:22;1999.90;;;999.90;;
13609;SDS011;6876;50.788;4.940;2022-10-03T07:29:11;1999.90;;;999.90;;
13609;SDS011;6876;50.788;4.940;2022-10-03T07:32:14;1999.90;;;999.90;;
13609;SDS011;6876;50.788;4.940;2022-10-03T07:35:20;1999.90;;;999.90;;
13609;SDS011;6876;50.788;4.940;2022-10-03T07:38:59;1999.90;;;999.90;;
13609;SDS011;6876;50.788;4.940;2022-10-03T07:42:20;1999.90;;;999.90;;
13609;SDS011;6876;50.788;4.940;2022-10-03T07:45:45;1999.90;;;999.90;;
13609;SDS011;6876;50.788;4.940;2022-10-03T07:49:05;1999.90;;;999.90;;
13609;SDS011;6876;50.788;4.940;2022-10-03T07:52:20;1999.90;;;999.90;;
13609;SDS011;6876;50.788;4.940;2022-10-03T07:55:46;1999.90;;;999.90;;
13609;SDS011;6876;50.788;4.940;2022-10-03T07:58:54;1999.90;;;999.90;;
13609;SDS011;6876;50.788;4.940;2022-10-03T08:01:57;1999.90;;;999.90;;
13609;SDS011;6876;50.788;4.940;2022-10-03T08:05:06;1999.90;;;999.90;;
13609;SDS011;6876;50.788;4.940;2022-10-03T08:08:15;1999.90;;;999.90;;
13609;SDS011;6876;50.788;4.940;2022-10-03T08:11:30;1999.90;;;999.90;;
13609;SDS011;6876;50.788;4.940;2022-10-03T08:14:31;1999.90;;;999.90;;
13609;SDS011;6876;50.788;4.940;2022-10-03T08:17:50;1999.90;;;999.90;;
13609;SDS011;6876;50.788;4.940;2022-10-03T08:20:54;1999.90;;;999.90;;
13609;SDS011;6876;50.788;4.940;2022-10-03T08:27:18;1999.90;;;999.90;;
13609;SDS011;6876;50.788;4.940;2022-10-03T08:30:23;1999.90;;;999.90;;
13609;SDS011;6876;50.788;4.940;2022-10-03T08:33:31;1999.90;;;999.90;;
13609;SDS011;6876;50.788;4.940;2022-10-03T08:36:39;1999.90;;;999.90;;
13609;SDS011;6876;50.788;4.940;2022-10-03T08:50:31;1999.90;;;999.90;;
13609;SDS011;6876;50.788;4.940;2022-10-03T08:53:44;1999.90;;;999.90;;
13609;SDS011;6876;50.788;4.940;2022-10-03T08:56:55;1999.90;;;999.90;;
13609;SDS011;6876;50.788;4.940;2022-10-03T09:00:07;1999.90;;;999.90;;
13609;SDS011;6876;50.788;4.940;2022-10-03T09:03:12;1999.90;;;999.90;;
13609;SDS011;6876;50.788;4.940;2022-10-03T09:06:37;1999.90;;;999.90;;
13609;SDS011;6876;50.788;4.940;2022-10-03T09:13:15;1999.90;;;999.90;;
13609;SDS011;6876;50.788;4.940;2022-10-03T09:16:36;1999.90;;;999.90;;
13609;SDS011;6876;50.788;4.940;2022-10-03T09:26:39;1999.90;;;999.90;;
13609;SDS011;6876;50.788;4.940;2022-10-03T09:39:59;1999.90;;;999.90;;
13609;SDS011;6876;50.788;4.940;2022-10-03T09:43:35;1999.90;;;999.90;;
13609;SDS011;6876;50.788;4.940;2022-10-03T09:46:53;1999.90;;;999.90;;
13609;SDS011;6876;50.788;4.940;2022-10-03T09:57:07;1999.90;;;999.90;;
13609;SDS011;6876;50.788;4.940;2022-10-03T10:00:17;1999.90;;;999.90;;
13609;SDS011;6876;50.788;4.940;2022-10-03T10:06:36;1999.90;;;999.90;;
13609;SDS011;6876;50.788;4.940;2022-10-03T10:09:49;1999.90;;;999.90;;
13609;SDS011;6876;50.788;4.940;2022-10-03T10:12:58;1999.90;;;999.90;;
13609;SDS011;6876;50.788;4.940;2022-10-03T10:19:53;1999.90;;;999.90;;
13609;SDS011;6876;50.788;4.940;2022-10-03T10:26:13;1999.90;;;999.90;;
13609;SDS011;6876;50.788;4.940;2022-10-03T10:29:38;1999.90;;;999.90;;
13609;SDS011;6876;50.788;4.940;2022-10-03T10:33:03;1999.90;;;999.90;;
13609;SDS011;6876;50.788;4.940;2022-10-03T10:39:44;1999.90;;;999.90;;
13609;SDS011;6876;50.788;4.940;2022-10-03T10:46:28;1999.90;;;999.90;;
13609;SDS011;6876;50.788;4.940;2022-10-03T11:03:47;1999.90;;;999.90;;
13609;SDS011;6876;50.788;4.940;2022-10-03T11:10:45;1999.90;;;999.90;;
13609;SDS011;6876;50.788;4.940;2022-10-03T11:13:55;1999.90;;;999.90;;
13609;SDS011;6876;50.788;4.940;2022-10-03T11:17:09;1999.90;;;999.90;;
13609;SDS011;6876;50.788;4.940;2022-10-03T11:23:43;1999.90;;;999.90;;
13609;SDS011;6876;50.788;4.940;2022-10-03T11:27:05;1999.90;;;999.90;;
13609;SDS011;6876;50.788;4.940;2022-10-03T11:30:18;1999.90;;;999.90;;
13609;SDS011;6876;50.788;4.940;2022-10-03T11:36:47;1999.90;;;999.90;;
13609;SDS011;6876;50.788;4.940;2022-10-03T11:39:53;1999.90;;;999.90;;
13609;SDS011;6876;50.788;4.940;2022-10-03T11:42:52;1999.90;;;999.90;;
13609;SDS011;6876;50.788;4.940;2022-10-03T11:45:48;1999.90;;;999.90;;
13609;SDS011;6876;50.788;4.940;2022-10-03T11:48:41;1999.90;;;999.90;;
13609;SDS011;6876;50.788;4.940;2022-10-03T11:51:35;1999.90;;;999.90;;
13609;SDS011;6876;50.788;4.940;2022-10-03T11:54:27;1999.90;;;999.90;;
13609;SDS011;6876;50.788;4.940;2022-10-03T11:57:20;1999.90;;;999.90;;
13609;SDS011;6876;50.788;4.940;2022-10-03T12:00:15;1999.90;;;999.90;;
13609;SDS011;6876;50.788;4.940;2022-10-03T12:03:09;1999.90;;;999.90;;
13609;SDS011;6876;50.788;4.940;2022-10-03T12:06:04;1999.90;;;999.90;;
13609;SDS011;6876;50.788;4.940;2022-10-03T12:09:14;1999.90;;;999.90;;
13609;SDS011;6876;50.788;4.940;2022-10-03T12:12:07;1999.90;;;999.90;;
13609;SDS011;6876;50.788;4.940;2022-10-03T12:15:02;1999.90;;;999.90;;
13609;SDS011;6876;50.788;4.940;2022-10-03T12:18:03;1999.90;;;999.90;;
13609;SDS011;6876;50.788;4.940;2022-10-03T12:20:59;1999.90;;;999.90;;
13609;SDS011;6876;50.788;4.940;2022-10-03T12:23:55;1999.90;;;999.90;;
13609;SDS011;6876;50.788;4.940;2022-10-03T12:27:00;1999.90;;;999.90;;
13609;SDS011;6876;50.788;4.940;2022-10-03T12:29:58;1999.90;;;999.90;;
13609;SDS011;6876;50.788;4.940;2022-10-03T12:32:55;1999.90;;;999.90;;
13609;SDS011;6876;50.788;4.940;2022-10-03T12:36:03;1999.90;;;999.90;;
13609;SDS011;6876;50.788;4.940;2022-10-03T12:39:03;1999.90;;;999.90;;
13609;SDS011;6876;50.788;4.940;2022-10-03T12:42:05;1999.90;;;999.90;;
13609;SDS011;6876;50.788;4.940;2022-10-03T12:45:04;1999.90;;;999.90;;
13609;SDS011;6876;50.788;4.940;2022-10-03T12:48:01;1999.90;;;999.90;;
13609;SDS011;6876;50.788;4.940;2022-10-03T12:51:06;1999.90;;;999.90;;
13609;SDS011;6876;50.788;4.940;2022-10-03T12:54:10;1999.90;;;999.90;;
13609;SDS011;6876;50.788;4.940;2022-10-03T12:57:16;1999.90;;;999.90;;
13609;SDS011;6876;50.788;4.940;2022-10-03T13:00:22;1999.90;;;999.90;;
13609;SDS011;6876;50.788;4.940;2022-10-03T13:03:18;1999.90;;;999.90;;
13609;SDS011;6876;50.788;4.940;2022-10-03T13:06:19;1999.90;;;999.90;;
13609;SDS011;6876;50.788;4.940;2022-10-03T13:09:40;1999.90;;;999.90;;
13609;SDS011;6876;50.788;4.940;2022-10-03T13:12:56;1999.90;;;999.90;;
13609;SDS011;6876;50.788;4.940;2022-10-03T13:16:03;1999.90;;;999.90;;
13609;SDS011;6876;50.788;4.940;2022-10-03T13:19:02;1999.90;;;999.90;;
13609;SDS011;6876;50.788;4.940;2022-10-03T13:22:02;1999.90;;;999.90;;
13609;SDS011;6876;50.788;4.940;2022-10-03T13:25:00;1999.90;;;999.90;;
13609;SDS011;6876;50.788;4.940;2022-10-03T13:27:55;1999.90;;;999.90;;
13609;SDS011;6876;50.788;4.940;2022-10-03T13:30:52;1999.90;;;999.90;;
13609;SDS011;6876;50.788;4.940;2022-10-03T13:33:43;1999.90;;;999.90;;
13609;SDS011;6876;50.788;4.940;2022-10-03T13:36:36;1999.90;;;999.90;;
13609;SDS011;6876;50.788;4.940;2022-10-03T13:39:27;1999.90;;;999.90;;
13609;SDS011;6876;50.788;4.940;2022-10-03T13:42:25;1999.90;;;999.90;;
13609;SDS011;6876;50.788;4.940;2022-10-03T13:45:22;1999.90;;;999.90;;
13609;SDS011;6876;50.788;4.940;2022-10-03T13:48:12;1999.90;;;999.90;;
13609;SDS011;6876;50.788;4.940;2022-10-03T13:51:03;1999.90;;;999.90;;
13609;SDS011;6876;50.788;4.940;2022-10-03T13:54:00;1999.90;;;999.90;;
13609;SDS011;6876;50.788;4.940;2022-10-03T13:56:54;1999.90;;;999.90;;
13609;SDS011;6876;50.788;4.940;2022-10-03T13:59:52;1999.90;;;999.90;;
13609;SDS011;6876;50.788;4.940;2022-10-03T14:02:50;1999.90;;;999.90;;
13609;SDS011;6876;50.788;4.940;2022-10-03T14:06:09;1999.90;;;999.90;;
13609;SDS011;6876;50.788;4.940;2022-10-03T14:09:12;1999.90;;;999.90;;
13609;SDS011;6876;50.788;4.940;2022-10-03T14:12:18;1999.90;;;999.90;;
13609;SDS011;6876;50.788;4.940;2022-10-03T14:15:19;1999.90;;;999.90;;
13609;SDS011;6876;50.788;4.940;2022-10-03T14:18:18;1999.90;;;999.90;;
13609;SDS011;6876;50.788;4.940;2022-10-03T14:21:34;1999.90;;;999.90;;
13609;SDS011;6876;50.788;4.940;2022-10-03T14:24:37;1999.90;;;999.90;;
13609;SDS011;6876;50.788;4.940;2022-10-03T14:27:41;1999.90;;;999.90;;
13609;SDS011;6876;50.788;4.940;2022-10-03T14:30:35;1999.90;;;999.90;;
13609;SDS011;6876;50.788;4.940;2022-10-03T14:33:38;1999.90;;;999.90;;
13609;SDS011;6876;50.788;4.940;2022-10-03T14:36:33;1999.90;;;999.90;;
13609;SDS011;6876;50.788;4.940;2022-10-03T14:39:28;1999.90;;;999.90;;
13609;SDS011;6876;50.788;4.940;2022-10-03T14:45:42;1999.90;;;999.90;;
13609;SDS011;6876;50.788;4.940;2022-10-03T14:48:34;1999.90;;;999.90;;
13609;SDS011;6876;50.788;4.940;2022-10-03T14:51:25;1999.90;;;999.90;;
13609;SDS011;6876;50.788;4.940;2022-10-03T14:54:18;1999.90;;;999.90;;
13609;SDS011;6876;50.788;4.940;2022-10-03T14:57:21;1999.90;;;999.90;;
13609;SDS011;6876;50.788;4.940;2022-10-03T15:00:31;1999.90;;;999.90;;
13609;SDS011;6876;50.788;4.940;2022-10-03T15:03:26;1999.90;;;999.90;;
13609;SDS011;6876;50.788;4.940;2022-10-03T15:06:29;1999.90;;;999.90;;
13609;SDS011;6876;50.788;4.940;2022-10-03T15:09:27;1999.90;;;999.90;;
13609;SDS011;6876;50.788;4.940;2022-10-03T15:12:20;1999.90;;;999.90;;
13609;SDS011;6876;50.788;4.940;2022-10-03T15:15:14;1999.90;;;999.90;;
13609;SDS011;6876;50.788;4.940;2022-10-03T15:18:06;1999.90;;;999.90;;
13609;SDS011;6876;50.788;4.940;2022-10-03T15:21:01;1999.90;;;999.90;;
13609;SDS011;6876;50.788;4.940;2022-10-03T15:23:52;1999.90;;;999.90;;
13609;SDS011;6876;50.788;4.940;2022-10-03T15:26:42;1999.90;;;999.90;;
13609;SDS011;6876;50.788;4.940;2022-10-03T15:29:36;1999.90;;;999.90;;
13609;SDS011;6876;50.788;4.940;2022-10-03T15:32:25;1999.90;;;999.90;;
13609;SDS011;6876;50.788;4.940;2022-10-03T15:35:18;1999.90;;;999.90;;
13609;SDS011;6876;50.788;4.940;2022-10-03T15:38:10;1999.90;;;999.90;;
13609;SDS011;6876;50.788;4.940;2022-10-03T15:41:05;1999.90;;;999.90;;
13609;SDS011;6876;50.788;4.940;2022-10-03T15:43:56;1999.90;;;999.90;;
13609;SDS011;6876;50.788;4.940;2022-10-03T15:46:52;1999.90;;;999.90;;
13609;SDS011;6876;50.788;4.940;2022-10-03T15:49:46;1999.90;;;999.90;;
13609;SDS011;6876;50.788;4.940;2022-10-03T15:52:40;1999.90;;;999.90;;
13609;SDS011;6876;50.788;4.940;2022-10-03T15:55:30;1999.90;;;999.90;;
13609;SDS011;6876;50.788;4.940;2022-10-03T15:58:25;1999.90;;;999.90;;
13609;SDS011;6876;50.788;4.940;2022-10-03T16:01:18;1999.90;;;999.90;;
13609;SDS011;6876;50.788;4.940;2022-10-03T16:04:11;1999.90;;;999.90;;
13609;SDS011;6876;50.788;4.940;2022-10-03T16:07:05;1999.90;;;999.90;;
13609;SDS011;6876;50.788;4.940;2022-10-03T16:10:02;1999.90;;;999.90;;
13609;SDS011;6876;50.788;4.940;2022-10-03T16:13:03;1999.90;;;999.90;;
13609;SDS011;6876;50.788;4.940;2022-10-03T16:16:02;1999.90;;;999.90;;
13609;SDS011;6876;50.788;4.940;2022-10-03T16:18:59;1999.90;;;999.90;;
13609;SDS011;6876;50.788;4.940;2022-10-03T16:22:11;1999.90;;;999.90;;
13609;SDS011;6876;50.788;4.940;2022-10-03T16:25:06;1999.90;;;999.90;;
13609;SDS011;6876;50.788;4.940;2022-10-03T16:28:00;1999.90;;;999.90;;
13609;SDS011;6876;50.788;4.940;2022-10-03T16:30:52;1999.90;;;999.90;;
13609;SDS011;6876;50.788;4.940;2022-10-03T16:33:44;1999.90;;;999.90;;
13609;SDS011;6876;50.788;4.940;2022-10-03T16:36:39;1999.90;;;999.90;;
13609;SDS011;6876;50.788;4.940;2022-10-03T16:39:29;1999.90;;;999.90;;
13609;SDS011;6876;50.788;4.940;2022-10-03T16:42:22;1999.90;;;999.90;;
13609;SDS011;6876;50.788;4.940;2022-10-03T16:45:22;1999.90;;;999.90;;
13609;SDS011;6876;50.788;4.940;2022-10-03T16:48:18;1999.90;;;999.90;;
13609;SDS011;6876;50.788;4.940;2022-10-03T16:51:26;1999.90;;;999.90;;
13609;SDS011;6876;50.788;4.940;2022-10-03T16:54:26;1999.90;;;999.90;;
13609;SDS011;6876;50.788;4.940;2022-10-03T16:57:17;1999.90;;;999.90;;
13609;SDS011;6876;50.788;4.940;2022-10-03T17:00:13;1999.90;;;999.90;;
13609;SDS011;6876;50.788;4.940;2022-10-03T17:03:04;1999.90;;;999.90;;
13609;SDS011;6876;50.788;4.940;2022-10-03T17:06:03;1999.90;;;999.90;;
13609;SDS011;6876;50.788;4.940;2022-10-03T17:08:53;1999.90;;;999.90;;
13609;SDS011;6876;50.788;4.940;2022-10-03T17:11:45;1999.90;;;999.90;;
13609;SDS011;6876;50.788;4.940;2022-10-03T17:14:40;1999.90;;;999.90;;
13609;SDS011;6876;50.788;4.940;2022-10-03T17:17:31;1999.90;;;999.90;;
13609;SDS011;6876;50.788;4.940;2022-10-03T17:20:33;1999.90;;;999.90;;
13609;SDS011;6876;50.788;4.940;2022-10-03T17:23:26;1999.90;;;999.90;;
13609;SDS011;6876;50.788;4.940;2022-10-03T17:26:18;1999.90;;;999.90;;
13609;SDS011;6876;50.788;4.940;2022-10-03T17:29:13;1999.90;;;999.90;;
13609;SDS011;6876;50.788;4.940;2022-10-03T17:32:07;1999.90;;;999.90;;
13609;SDS011;6876;50.788;4.940;2022-10-03T17:35:05;1281.43;;;880.93;;
13609;SDS011;6876;50.788;4.940;2022-10-03T17:38:02;809.33;;;674.97;;
13609;SDS011;6876;50.788;4.940;2022-10-03T17:41:05;674.20;;;604.37;;
13609;SDS011;6876;50.788;4.940;2022-10-03T17:44:06;398.50;;;362.90;;
13609;SDS011;6876;50.788;4.940;2022-10-03T17:47:02;448.20;;;414.33;;
13609;SDS011;6876;50.788;4.940;2022-10-03T17:49:56;411.10;;;382.40;;
13609;SDS011;6876;50.788;4.940;2022-10-03T17:52:50;206.77;;;194.77;;
13609;SDS011;6876;50.788;4.940;2022-10-03T17:55:39;282.30;;;257.50;;
13609;SDS011;6876;50.788;4.940;2022-10-03T17:58:30;292.67;;;267.30;;
13609;SDS011;6876;50.788;4.940;2022-10-03T18:01:19;226.67;;;209.37;;
13609;SDS011;6876;50.788;4.940;2022-10-03T18:04:14;145.10;;;137.17;;
13609;SDS011;6876;50.788;4.940;2022-10-03T18:07:05;159.90;;;151.20;;
13609;SDS011;6876;50.788;4.940;2022-10-03T18:09:56;185.83;;;175.87;;
13609;SDS011;6876;50.788;4.940;2022-10-03T18:12:44;184.87;;;173.83;;
13609;SDS011;6876;50.788;4.940;2022-10-03T18:15:39;158.63;;;149.90;;
13609;SDS011;6876;50.788;4.940;2022-10-03T18:22:10;124.30;;;117.43;;
13609;SDS011;6876;50.788;4.940;2022-10-03T18:25:07;151.50;;;142.97;;
13609;SDS011;6876;50.788;4.940;2022-10-03T18:28:18;136.47;;;129.17;;
13609;SDS011;6876;50.788;4.940;2022-10-03T18:31:08;129.97;;;122.97;;
13609;SDS011;6876;50.788;4.940;2022-10-03T18:34:01;98.43;;;93.17;;
13609;SDS011;6876;50.788;4.940;2022-10-03T18:36:54;65.87;;;61.87;;
13609;SDS011;6876;50.788;4.940;2022-10-03T18:39:42;43.20;;;40.53;;
13609;SDS011;6876;50.788;4.940;2022-10-03T18:42:33;27.37;;;25.40;;
13609;SDS011;6876;50.788;4.940;2022-10-03T18:45:20;25.67;;;23.67;;
13609;SDS011;6876;50.788;4.940;2022-10-03T18:48:15;13.37;;;11.93;;
13609;SDS011;6876;50.788;4.940;2022-10-03T18:51:11;17.23;;;13.97;;
13609;SDS011;6876;50.788;4.940;2022-10-03T18:54:03;17.23;;;10.63;;
13609;SDS011;6876;50.788;4.940;2022-10-03T18:57:02;13.67;;;9.97;;
13609;SDS011;6876;50.788;4.940;2022-10-03T18:59:59;19.40;;;11.43;;
13609;SDS011;6876;50.788;4.940;2022-10-03T19:02:50;13.33;;;11.20;;
13609;SDS011;6876;50.788;4.940;2022-10-03T19:05:41;13.43;;;12.23;;
13609;SDS011;6876;50.788;4.940;2022-10-03T19:08:34;10.70;;;8.70;;
13609;SDS011;6876;50.788;4.940;2022-10-03T19:11:27;14.57;;;10.33;;
13609;SDS011;6876;50.788;4.940;2022-10-03T19:14:16;11.73;;;9.13;;
13609;SDS011;6876;50.788;4.940;2022-10-03T19:17:17;14.17;;;9.67;;
13609;SDS011;6876;50.788;4.940;2022-10-03T19:20:14;12.07;;;10.77;;
13609;SDS011;6876;50.788;4.940;2022-10-03T19:23:08;14.27;;;11.37;;
13609;SDS011;6876;50.788;4.940;2022-10-03T19:25:59;14.47;;;11.70;;
13609;SDS011;6876;50.788;4.940;2022-10-03T19:28:54;14.30;;;11.63;;
13609;SDS011;6876;50.788;4.940;2022-10-03T19:31:50;15.33;;;11.33;;
13609;SDS011;6876;50.788;4.940;2022-10-03T19:34:46;12.43;;;11.10;;
13609;SDS011;6876;50.788;4.940;2022-10-03T19:37:37;12.90;;;10.83;;
13609;SDS011;6876;50.788;4.940;2022-10-03T19:40:29;11.83;;;10.63;;
13609;SDS011;6876;50.788;4.940;2022-10-03T19:43:36;12.73;;;10.07;;
13609;SDS011;6876;50.788;4.940;2022-10-03T19:46:31;14.10;;;10.30;;
13609;SDS011;6876;50.788;4.940;2022-10-03T19:49:42;10.87;;;9.53;;
13609;SDS011;6876;50.788;4.940;2022-10-03T19:52:46;11.03;;;8.80;;
13609;SDS011;6876;50.788;4.940;2022-10-03T19:55:34;14.73;;;10.63;;
13609;SDS011;6876;50.788;4.940;2022-10-03T19:58:23;12.50;;;11.30;;
13609;SDS011;6876;50.788;4.940;2022-10-03T20:01:19;20.37;;;18.33;;
13609;SDS011;6876;50.788;4.940;2022-10-03T20:04:09;21.20;;;16.23;;
13609;SDS011;6876;50.788;4.940;2022-10-03T20:07:03;16.73;;;14.93;;
13609;SDS011;6876;50.788;4.940;2022-10-03T20:10:05;21.53;;;15.00;;
13609;SDS011;6876;50.788;4.940;2022-10-03T20:13:07;16.87;;;13.73;;
13609;SDS011;6876;50.788;4.940;2022-10-03T20:16:00;14.73;;;12.63;;